createdAt,value
2023-04-02T00:00:11.160Z,99430.75
2023-04-02T00:02:46.536Z,99423.75
2023-04-02T00:05:18.230Z,99424.72
2023-04-02T00:07:51.229Z,99426.50
2023-04-02T00:10:39.349Z,99428.16
2023-04-02T00:13:10.115Z,99429.72
2023-04-02T00:15:39.448Z,99434.03
2023-04-02T00:18:09.770Z,99429.44
2023-04-02T00:20:42.069Z,99416.31
2023-04-02T00:23:14.323Z,99428.59
2023-04-02T00:25:46.316Z,99436.41
2023-04-02T00:28:24.378Z,99423.31
2023-04-02T00:30:58.587Z,99421.41
2023-04-02T00:33:31.586Z,99438.13
2023-04-02T00:35:59.667Z,99428.31
2023-04-02T00:38:31.714Z,99423.81
2023-04-02T00:41:03.893Z,99416.09
2023-04-02T00:43:36.983Z,99426.53
2023-04-02T00:46:14.364Z,99421.13
2023-04-02T00:49:05.778Z,99433.69
2023-04-02T00:51:38.734Z,99429.56
2023-04-02T00:54:11.092Z,99424.72
2023-04-02T00:56:51.945Z,99417.44
2023-04-02T00:59:26.103Z,99425.94
2023-04-02T01:02:01.532Z,99430.31
2023-04-02T01:04:34.888Z,99430.47
2023-04-02T01:07:08.917Z,99433.09
2023-04-02T01:09:44.969Z,99428.00
2023-04-02T01:13:13.830Z,99434.97
2023-04-02T01:15:48.896Z,99437.50
2023-04-02T01:18:39.879Z,99415.78
2023-04-02T01:21:25.574Z,99433.03
2023-04-02T01:24:06.171Z,99417.38
2023-04-02T01:27:12.184Z,99439.09
2023-04-02T01:29:45.531Z,99433.69
2023-04-02T01:32:17.090Z,99440.69
2023-04-02T01:34:47.839Z,99442.31
2023-04-02T01:37:39.240Z,99417.94
2023-04-02T01:40:28.590Z,99449.47
2023-04-02T01:43:13.351Z,99448.50
2023-04-02T01:45:41.275Z,99438.13
2023-04-02T01:48:30.901Z,99443.19
2023-04-02T01:50:59.944Z,99453.56
2023-04-02T01:53:31.018Z,99462.34
2023-04-02T01:56:01.456Z,99450.03
2023-04-02T01:58:32.149Z,99467.50
2023-04-02T02:01:12.803Z,99458.78
2023-04-02T02:03:42.608Z,99440.62
2023-04-02T02:06:18.386Z,99461.50
2023-04-02T02:08:59.994Z,99450.13
2023-04-02T02:11:30.131Z,99447.47
2023-04-02T02:14:05.423Z,99436.25
2023-04-02T02:16:42.001Z,99458.78
2023-04-02T02:19:22.538Z,99437.91
2023-04-02T02:21:54.065Z,99464.06
2023-04-02T02:24:25.789Z,99459.66
2023-04-02T02:27:26.074Z,99450.06
2023-04-02T02:29:56.865Z,99457.63
2023-04-02T02:32:29.646Z,99466.38
2023-04-02T02:35:24.127Z,99456.66
2023-04-02T02:38:02.027Z,99456.50
2023-04-02T02:40:43.247Z,99452.87
2023-04-02T02:43:13.404Z,99460.81
2023-04-02T02:45:43.149Z,99464.28
2023-04-02T02:48:15.563Z,99467.00
2023-04-02T02:50:44.027Z,99458.44
2023-04-02T02:53:23.025Z,99451.31
2023-04-02T02:55:55.757Z,99454.78
2023-04-02T02:58:31.640Z,99455.91
2023-04-02T03:00:59.783Z,99464.75
2023-04-02T03:03:30.294Z,99459.63
2023-04-02T03:06:03.039Z,99463.16
2023-04-02T03:08:42.463Z,99469.56
2023-04-02T03:11:16.768Z,99460.81
2023-04-02T03:13:49.032Z,99458.38
2023-04-02T03:16:39.162Z,99457.66
2023-04-02T03:19:28.413Z,99453.63
2023-04-02T03:22:03.212Z,99467.78
2023-04-02T03:24:52.451Z,99464.22
2023-04-02T03:27:28.171Z,99463.56
2023-04-02T03:29:58.554Z,99470.88
2023-04-02T03:32:31.421Z,99467.47
2023-04-02T03:35:03.144Z,99477.16
2023-04-02T03:37:54.798Z,99476.19
2023-04-02T03:40:28.895Z,99479.25
2023-04-02T03:43:27.323Z,99467.37
2023-04-02T03:46:21.100Z,99487.00
2023-04-02T03:49:26.636Z,99464.38
2023-04-02T03:52:06.817Z,99483.63
2023-04-02T03:54:34.208Z,99485.63
2023-04-02T03:57:01.733Z,99470.66
2023-04-02T03:59:48.806Z,99490.78
2023-04-02T04:02:41.336Z,99484.88
2023-04-02T04:05:39.256Z,99494.59
2023-04-02T04:08:17.205Z,99493.72
2023-04-02T04:10:44.963Z,99480.81
2023-04-02T04:13:30.981Z,99499.22
2023-04-02T04:16:05.246Z,99498.31
2023-04-02T04:19:03.387Z,99501.16
2023-04-02T04:21:31.467Z,99486.91
2023-04-02T04:24:04.194Z,99519.53
2023-04-02T04:27:04.231Z,99509.97
2023-04-02T04:30:10.520Z,99513.75
2023-04-02T04:32:50.420Z,99514.03
2023-04-02T04:35:37.648Z,99515.50
2023-04-02T04:38:27.663Z,99525.41
2023-04-02T04:41:14.201Z,99521.09
2023-04-02T04:44:00.757Z,99518.72
2023-04-02T04:46:31.655Z,99518.81
2023-04-02T04:49:18.017Z,99524.22
2023-04-02T04:51:52.160Z,99525.22
2023-04-02T04:54:20.342Z,99523.47
2023-04-02T04:56:54.051Z,99527.81
2023-04-02T04:59:27.308Z,99529.44
2023-04-02T05:02:19.841Z,99531.22
2023-04-02T05:04:51.973Z,99534.78
2023-04-02T05:07:26.549Z,99534.69
2023-04-02T05:10:12.909Z,99534.69
2023-04-02T05:12:48.543Z,99541.44
2023-04-02T05:15:24.845Z,99538.75
2023-04-02T05:18:30.892Z,99540.31
2023-04-02T05:21:08.653Z,99530.63
2023-04-02T05:23:46.475Z,99544.37
2023-04-02T05:26:19.354Z,99554.72
2023-04-02T05:29:10.376Z,99539.50
2023-04-02T05:31:54.619Z,99552.84
2023-04-02T05:34:29.715Z,99548.25
2023-04-02T05:36:58.500Z,99559.16
2023-04-02T05:39:27.481Z,99551.69
2023-04-02T05:42:03.515Z,99554.97
2023-04-02T05:44:34.216Z,99556.38
2023-04-02T05:47:12.390Z,99564.09
2023-04-02T05:49:48.243Z,99561.19
2023-04-02T05:52:21.282Z,99564.19
2023-04-02T05:54:56.788Z,99561.03
2023-04-02T06:00:17.109Z,99564.72
2023-04-02T06:03:07.443Z,99556.69
2023-04-02T06:05:40.063Z,99567.37
2023-04-02T06:08:16.378Z,99552.41
2023-04-02T06:10:51.025Z,99581.09
2023-04-02T06:13:19.058Z,99576.44
2023-04-02T06:15:47.935Z,99571.91
2023-04-02T06:18:20.057Z,99573.38
2023-04-02T06:20:47.772Z,99579.13
2023-04-02T06:23:31.294Z,99587.03
2023-04-02T06:26:03.582Z,99598.81
2023-04-02T06:28:38.613Z,99591.81
2023-04-02T06:31:12.311Z,99595.94
2023-04-02T06:33:39.664Z,99586.66
2023-04-02T06:36:09.348Z,99578.53
2023-04-02T06:38:37.897Z,99589.63
2023-04-02T06:41:20.756Z,99590.50
2023-04-02T06:43:54.701Z,99574.06
2023-04-02T06:46:36.370Z,99587.69
2023-04-02T06:49:28.325Z,99595.03
2023-04-02T06:51:58.441Z,99583.75
2023-04-02T06:54:26.074Z,99596.28
2023-04-02T06:56:56.469Z,99584.81
2023-04-02T06:59:24.684Z,99602.16
2023-04-02T07:02:00.999Z,99604.06
2023-04-02T07:04:29.023Z,99598.31
2023-04-02T07:06:56.878Z,99597.28
2023-04-02T07:09:24.187Z,99587.44
2023-04-02T07:11:51.649Z,99596.03
2023-04-02T07:14:18.991Z,99600.31
2023-04-02T07:16:46.381Z,99589.72
2023-04-02T07:19:22.212Z,99586.53
2023-04-02T07:21:50.166Z,99605.66
2023-04-02T07:24:18.073Z,99607.06
2023-04-02T07:26:48.309Z,99597.78
2023-04-02T07:29:17.542Z,99599.66
2023-04-02T07:31:45.142Z,99612.25
2023-04-02T07:34:12.734Z,99620.59
2023-04-02T07:36:39.943Z,99617.12
2023-04-02T07:39:07.452Z,99617.22
2023-04-02T07:41:53.739Z,99609.69
2023-04-02T07:44:21.407Z,99615.91
2023-04-02T07:46:48.933Z,99632.00
2023-04-02T07:49:16.772Z,99637.72
2023-04-02T07:51:44.489Z,99622.94
2023-04-02T07:54:13.097Z,99639.16
2023-04-02T07:56:40.196Z,99623.94
2023-04-02T07:59:08.001Z,99633.75
2023-04-02T08:01:35.618Z,99641.31
2023-04-02T08:04:04.984Z,99633.38
2023-04-02T08:06:32.197Z,99649.50
2023-04-02T08:08:59.322Z,99643.22
2023-04-02T08:11:28.091Z,99647.69
2023-04-02T08:13:56.334Z,99649.00
2023-04-02T08:16:25.334Z,99656.63
2023-04-02T08:18:52.673Z,99659.53
2023-04-02T08:21:20.252Z,99647.84
2023-04-02T08:23:47.860Z,99657.91
2023-04-02T08:26:18.932Z,99645.69
2023-04-02T08:28:46.723Z,99637.31
2023-04-02T08:31:17.467Z,99639.94
2023-04-02T08:33:44.879Z,99645.50
2023-04-02T08:36:19.238Z,99641.38
2023-04-02T08:38:46.936Z,99636.63
2023-04-02T08:41:24.671Z,99626.41
2023-04-02T08:44:08.390Z,99643.69
2023-04-02T08:46:55.745Z,99653.97
2023-04-02T08:49:32.535Z,99652.16
2023-04-02T08:52:00.990Z,99649.47
2023-04-02T08:54:38.105Z,99651.03
2023-04-02T08:57:20.826Z,99636.59
2023-04-02T08:59:51.128Z,99657.81
2023-04-02T09:02:38.353Z,99653.88
2023-04-02T09:05:08.391Z,99665.00
2023-04-02T09:07:36.298Z,99655.50
2023-04-02T09:10:05.103Z,99654.38
2023-04-02T09:12:33.112Z,99657.66
2023-04-02T09:15:29.655Z,99657.63
2023-04-02T09:18:06.893Z,99668.91
2023-04-02T09:20:34.217Z,99665.03
2023-04-02T09:23:01.388Z,99673.78
2023-04-02T09:25:34.371Z,99684.84
2023-04-02T09:28:04.267Z,99679.56
2023-04-02T09:30:59.580Z,99679.22
2023-04-02T09:33:48.404Z,99673.16
2023-04-02T09:36:38.990Z,99681.09
2023-04-02T09:39:18.279Z,99687.50
2023-04-02T09:41:52.857Z,99680.97
2023-04-02T09:44:32.861Z,99676.09
2023-04-02T09:47:04.239Z,99681.84
2023-04-02T09:49:37.079Z,99678.03
2023-04-02T09:52:09.683Z,99683.81
2023-04-02T09:54:43.626Z,99677.81
2023-04-02T09:57:24.834Z,99672.84
2023-04-02T10:00:41.547Z,99693.69
2023-04-02T10:03:27.618Z,99691.62
2023-04-02T10:06:15.500Z,99696.09
2023-04-02T10:08:45.193Z,99688.47
2023-04-02T10:11:18.974Z,99698.53
2023-04-02T10:13:57.244Z,99682.38
2023-04-02T10:16:33.639Z,99697.69
2023-04-02T10:19:04.394Z,99699.94
2023-04-02T10:21:35.944Z,99693.59
2023-04-02T10:24:10.629Z,99682.97
2023-04-02T10:26:42.177Z,99682.31
2023-04-02T10:29:31.646Z,99683.31
2023-04-02T10:32:06.288Z,99688.16
2023-04-02T10:35:06.068Z,99667.66
2023-04-02T10:37:36.353Z,99687.50
2023-04-02T10:40:14.381Z,99687.72
2023-04-02T10:43:13.211Z,99691.19
2023-04-02T10:45:46.135Z,99680.50
2023-04-02T10:48:31.304Z,99678.88
2023-04-02T10:51:12.113Z,99688.44
2023-04-02T10:53:47.628Z,99661.72
2023-04-02T10:56:15.521Z,99659.28
2023-04-02T10:59:10.999Z,99659.03
2023-04-02T11:01:41.456Z,99676.72
2023-04-02T11:04:22.726Z,99673.50
2023-04-02T11:07:13.236Z,99653.72
2023-04-02T11:09:45.926Z,99659.38
2023-04-02T11:12:46.587Z,99668.59
2023-04-02T11:15:19.933Z,99668.59
2023-04-02T11:17:48.136Z,99652.34
2023-04-02T11:20:53.155Z,99651.44
2023-04-02T11:23:21.804Z,99663.19
2023-04-02T11:25:49.184Z,99667.28
2023-04-02T11:28:32.695Z,99666.41
2023-04-02T11:31:00.322Z,99667.03
2023-04-02T11:33:39.964Z,99663.03
2023-04-02T11:36:47.348Z,99674.91
2023-04-02T11:39:46.353Z,99666.00
2023-04-02T11:42:19.396Z,99662.16
2023-04-02T11:44:46.752Z,99661.34
2023-04-02T11:47:22.517Z,99644.94
2023-04-02T11:50:16.465Z,99653.53
2023-04-02T11:52:46.442Z,99655.09
2023-04-02T11:55:48.340Z,99666.81
2023-04-02T11:58:42.848Z,99650.47
2023-04-02T12:01:34.169Z,99654.81
2023-04-02T12:04:16.633Z,99664.78
2023-04-02T12:06:47.308Z,99653.84
2023-04-02T12:09:20.126Z,99651.84
2023-04-02T12:11:49.844Z,99657.00
2023-04-02T12:14:43.364Z,99650.72
2023-04-02T12:17:40.137Z,99652.56
2023-04-02T12:20:09.140Z,99649.47
2023-04-02T12:22:47.981Z,99650.97
2023-04-02T12:25:21.795Z,99651.66
2023-04-02T12:28:02.865Z,99648.66
2023-04-02T12:30:30.063Z,99629.25
2023-04-02T12:32:57.861Z,99628.50
2023-04-02T12:35:28.150Z,99636.75
2023-04-02T12:37:55.886Z,99641.06
2023-04-02T12:40:23.977Z,99633.22
2023-04-02T12:42:51.627Z,99630.53
2023-04-02T12:45:29.294Z,99617.63
2023-04-02T12:47:58.585Z,99628.25
2023-04-02T12:50:26.336Z,99622.94
2023-04-02T12:52:59.337Z,99610.84
2023-04-02T12:55:28.036Z,99613.50
2023-04-02T12:57:59.958Z,99606.69
2023-04-02T13:00:31.693Z,99623.66
2023-04-02T13:03:06.923Z,99618.81
2023-04-02T13:05:57.393Z,99624.84
2023-04-02T13:08:40.554Z,99623.16
2023-04-02T13:11:08.172Z,99625.94
2023-04-02T13:13:42.157Z,99616.41
2023-04-02T13:16:15.833Z,99620.13
2023-04-02T13:18:46.696Z,99624.09
2023-04-02T13:21:14.814Z,99620.09
2023-04-02T13:23:41.767Z,99618.50
2023-04-02T13:26:09.239Z,99607.38
2023-04-02T13:28:37.028Z,99611.47
2023-04-02T13:31:04.780Z,99607.63
2023-04-02T13:33:34.631Z,99613.78
2023-04-02T13:36:01.952Z,99612.75
2023-04-02T13:38:29.915Z,99620.19
2023-04-02T13:40:57.831Z,99603.56
2023-04-02T13:43:25.211Z,99618.06
2023-04-02T13:45:56.780Z,99603.03
2023-04-02T13:48:28.346Z,99608.34
2023-04-02T13:50:56.024Z,99614.50
2023-04-02T13:53:32.376Z,99621.16
2023-04-02T13:55:59.435Z,99617.12
2023-04-02T13:58:27.602Z,99621.13
2023-04-02T14:00:57.039Z,99604.59
2023-04-02T14:03:25.068Z,99611.91
2023-04-02T14:06:17.493Z,99599.31
2023-04-02T14:09:02.886Z,99627.13
2023-04-02T14:11:54.152Z,99640.69
2023-04-02T14:15:06.919Z,99660.88
2023-04-02T14:17:51.996Z,99674.22
2023-04-02T14:20:28.731Z,99676.16
2023-04-02T14:23:43.948Z,99696.66
2023-04-02T14:26:46.005Z,99690.34
2023-04-02T14:29:37.438Z,99697.72
2023-04-02T14:32:21.329Z,99694.75
2023-04-02T14:35:14.799Z,99705.78
2023-04-02T14:38:05.085Z,99728.66
2023-04-02T14:41:12.834Z,99709.66
2023-04-02T14:43:53.877Z,99715.50
2023-04-02T14:46:26.054Z,99712.31
2023-04-02T14:49:02.330Z,99710.09
2023-04-02T14:51:38.031Z,99730.16
2023-04-02T14:54:27.296Z,99715.56
2023-04-02T14:57:00.700Z,99740.66
2023-04-02T14:59:34.409Z,99715.41
2023-04-02T15:02:09.315Z,99732.63
2023-04-02T15:04:44.275Z,99727.09
2023-04-02T15:07:20.446Z,99735.91
2023-04-02T15:09:55.795Z,99736.63
2023-04-02T15:12:29.372Z,99713.88
2023-04-02T15:15:33.157Z,99714.22
2023-04-02T15:18:11.216Z,99740.28
2023-04-02T15:21:07.285Z,99737.13
2023-04-02T15:23:52.430Z,99730.84
2023-04-02T15:26:30.945Z,99727.59
2023-04-02T15:29:29.566Z,99734.09
2023-04-02T15:32:12.447Z,99724.22
2023-04-02T15:34:49.625Z,99731.50
2023-04-02T15:37:37.994Z,99731.03
2023-04-02T15:40:05.841Z,99733.69
2023-04-02T15:42:44.479Z,99737.50
2023-04-02T15:45:32.458Z,99727.34
2023-04-02T15:48:37.372Z,99743.59
2023-04-02T15:51:41.733Z,99758.13
2023-04-02T15:54:30.839Z,99754.41
2023-04-02T15:57:21.294Z,99753.16
2023-04-02T16:00:07.351Z,99752.56
2023-04-02T16:02:41.350Z,99771.00
2023-04-02T16:05:34.360Z,99765.41
2023-04-02T16:08:22.890Z,99780.59
2023-04-02T16:10:51.168Z,99769.53
2023-04-02T16:13:32.948Z,99752.38
2023-04-02T16:16:33.060Z,99764.37
2023-04-02T16:19:15.982Z,99774.09
2023-04-02T16:22:00.147Z,99779.19
2023-04-02T16:24:31.035Z,99782.91
2023-04-02T16:27:20.172Z,99771.91
2023-04-02T16:30:18.077Z,99782.16
2023-04-02T16:32:53.047Z,99785.34
2023-04-02T16:35:43.197Z,99789.06
2023-04-02T16:38:42.096Z,99799.41
2023-04-02T16:41:14.532Z,99799.94
2023-04-02T16:44:15.862Z,99805.50
2023-04-02T16:47:14.133Z,99804.13
2023-04-02T16:50:00.907Z,99806.66
2023-04-02T16:52:44.651Z,99809.56
2023-04-02T16:55:20.791Z,99814.88
2023-04-02T16:58:01.847Z,99812.03
2023-04-02T17:00:59.113Z,99805.31
2023-04-02T17:04:08.980Z,99820.00
2023-04-02T17:06:51.135Z,99820.78
2023-04-02T17:09:30.654Z,99818.63
2023-04-02T17:12:12.528Z,99835.06
2023-04-02T17:14:51.287Z,99833.56
2023-04-02T17:17:21.261Z,99836.47
2023-04-02T17:19:52.921Z,99827.69
2023-04-02T17:22:23.535Z,99827.72
2023-04-02T17:24:57.994Z,99839.69
2023-04-02T17:27:28.206Z,99845.47
2023-04-02T17:30:03.841Z,99852.31
2023-04-02T17:32:33.790Z,99852.84
2023-04-02T17:35:18.855Z,99866.63
2023-04-02T17:37:58.083Z,99849.25
2023-04-02T17:41:06.063Z,99847.81
2023-04-02T17:43:45.875Z,99868.91
2023-04-02T17:46:48.720Z,99870.19
2023-04-02T17:49:40.392Z,99874.50
2023-04-02T17:52:38.427Z,99884.50
2023-04-02T17:55:28.268Z,99884.03
2023-04-02T17:58:12.053Z,99895.59
2023-04-02T18:01:01.084Z,99902.22
2023-04-02T18:03:50.628Z,99894.50
2023-04-02T18:06:44.069Z,99911.81
2023-04-02T18:09:27.763Z,99921.81
2023-04-02T18:12:18.928Z,99926.44
2023-04-02T18:15:03.530Z,99938.44
2023-04-02T18:17:52.741Z,99934.31
2023-04-02T18:20:41.225Z,99941.81
2023-04-02T18:23:20.492Z,99944.84
2023-04-02T18:26:03.643Z,99932.03
2023-04-02T18:28:41.786Z,99963.75
2023-04-02T18:31:36.288Z,99946.00
2023-04-02T18:34:24.546Z,99973.25
2023-04-02T18:36:59.715Z,99956.75
2023-04-02T18:40:13.186Z,99976.19
2023-04-02T18:42:47.127Z,99997.50
2023-04-02T18:45:49.761Z,99998.78
2023-04-02T18:48:29.647Z,100005.59
2023-04-02T18:51:01.231Z,99998.91
2023-04-02T18:53:33.754Z,100002.84
2023-04-02T18:56:11.977Z,100020.34
2023-04-02T18:58:45.497Z,100019.22
2023-04-02T19:01:19.259Z,100028.25
2023-04-02T19:04:02.277Z,100031.41
2023-04-02T19:06:44.835Z,100027.31
2023-04-02T19:09:26.467Z,100042.25
2023-04-02T19:11:55.259Z,100043.97
2023-04-02T19:14:24.087Z,100028.78
2023-04-02T19:17:11.040Z,100052.25
2023-04-02T19:19:51.925Z,100052.38
2023-04-02T19:22:33.134Z,100047.09
2023-04-02T19:25:26.738Z,100058.75
2023-04-02T19:28:06.669Z,100062.09
2023-04-02T19:30:40.045Z,100068.56
2023-04-02T19:33:22.166Z,100058.94
2023-04-02T19:36:16.329Z,100074.56
2023-04-02T19:38:49.459Z,100079.97
2023-04-02T19:41:32.753Z,100083.91
2023-04-02T19:44:03.085Z,100093.53
2023-04-02T19:46:32.076Z,100096.03
2023-04-02T19:49:28.957Z,100087.13
2023-04-02T19:51:57.701Z,100099.66
2023-04-02T19:54:26.030Z,100101.37
2023-04-02T19:56:54.197Z,100092.22
2023-04-02T19:59:22.718Z,100104.59
2023-04-02T20:01:51.253Z,100102.59
2023-04-02T20:04:20.536Z,100122.59
2023-04-02T20:06:48.648Z,100123.75
2023-04-02T20:09:16.976Z,100099.44
2023-04-02T20:11:46.223Z,100120.25
2023-04-02T20:14:14.334Z,100126.31
2023-04-02T20:16:44.501Z,100141.22
2023-04-02T20:19:13.554Z,100136.34
2023-04-02T20:21:41.459Z,100151.31
2023-04-02T20:24:09.412Z,100140.25
2023-04-02T20:26:38.241Z,100134.00
2023-04-02T20:29:05.958Z,100161.94
2023-04-02T20:31:34.740Z,100170.16
2023-04-02T20:34:05.440Z,100154.59
2023-04-02T20:36:34.117Z,100179.09
2023-04-02T20:39:01.445Z,100186.06
2023-04-02T20:41:30.075Z,100196.66
2023-04-02T20:43:57.812Z,100193.22
2023-04-02T20:46:25.787Z,100185.47
2023-04-02T20:48:52.959Z,100189.75
2023-04-02T20:51:20.017Z,100201.09
2023-04-02T20:53:48.022Z,100209.87
2023-04-02T20:56:17.085Z,100190.50
2023-04-02T20:58:44.824Z,100197.63
2023-04-02T21:01:20.767Z,100203.75
2023-04-02T21:03:48.972Z,100209.63
2023-04-02T21:06:17.153Z,100201.88
2023-04-02T21:08:44.762Z,100213.25
2023-04-02T21:11:12.278Z,100213.37
2023-04-02T21:13:43.875Z,100208.09
2023-04-02T21:16:22.412Z,100215.16
2023-04-02T21:18:52.797Z,100227.41
2023-04-02T21:21:21.179Z,100223.13
2023-04-02T21:23:54.007Z,100237.16
2023-04-02T21:26:21.043Z,100224.47
2023-04-02T21:28:47.965Z,100236.00
2023-04-02T21:31:18.628Z,100245.88
2023-04-02T21:33:48.088Z,100239.03
2023-04-02T21:36:18.077Z,100260.16
2023-04-02T21:38:47.716Z,100259.31
2023-04-02T21:41:38.615Z,100256.81
2023-04-02T21:44:07.047Z,100251.66
2023-04-02T21:46:39.673Z,100267.66
2023-04-02T21:49:08.494Z,100264.97
2023-04-02T21:51:37.655Z,100258.94
2023-04-02T21:54:05.052Z,100266.97
2023-04-02T21:56:35.690Z,100264.50
2023-04-02T21:59:04.924Z,100261.25
2023-04-02T22:01:36.022Z,100270.97
2023-04-02T22:04:05.765Z,100271.84
2023-04-02T22:06:37.659Z,100266.81
2023-04-02T22:09:09.500Z,100268.81
2023-04-02T22:11:40.756Z,100268.84
2023-04-02T22:14:07.775Z,100278.59
2023-04-02T22:16:35.609Z,100264.66
2023-04-02T22:19:05.670Z,100277.03
2023-04-02T22:21:33.587Z,100275.19
2023-04-02T22:24:05.005Z,100268.41
2023-04-02T22:26:33.329Z,100293.03
2023-04-02T22:29:01.562Z,100268.50
2023-04-02T22:31:31.228Z,100300.06
2023-04-02T22:33:59.841Z,100305.22
2023-04-02T22:36:28.293Z,100296.59
2023-04-02T22:38:55.462Z,100312.34
2023-04-02T22:41:29.593Z,100300.00
2023-04-02T22:43:57.079Z,100308.75
2023-04-02T22:46:26.817Z,100296.69
2023-04-02T22:48:55.959Z,100309.78
2023-04-02T22:51:24.864Z,100314.97
2023-04-02T22:53:54.287Z,100310.78
2023-04-02T22:56:24.281Z,100319.63
2023-04-02T22:58:51.243Z,100311.66
2023-04-02T23:01:22.244Z,100312.44
2023-04-02T23:03:50.117Z,100306.41
2023-04-02T23:06:18.437Z,100293.38
2023-04-02T23:08:46.295Z,100314.34
2023-04-02T23:11:16.651Z,100308.13
2023-04-02T23:13:45.043Z,100320.56
2023-04-02T23:16:13.924Z,100311.84
2023-04-02T23:18:42.818Z,100304.78
2023-04-02T23:21:10.160Z,100320.62
2023-04-02T23:23:37.558Z,100331.25
2023-04-02T23:26:11.487Z,100326.84
2023-04-02T23:28:40.497Z,100324.31
2023-04-02T23:31:11.638Z,100307.66
2023-04-02T23:33:38.882Z,100335.72
2023-04-02T23:36:16.802Z,100318.97
2023-04-02T23:38:44.455Z,100326.91
2023-04-02T23:41:14.754Z,100338.41
2023-04-02T23:43:42.754Z,100339.28
2023-04-02T23:46:10.136Z,100295.59
2023-04-02T23:48:37.934Z,100337.72
2023-04-02T23:51:05.988Z,100328.91
2023-04-02T23:53:34.684Z,100320.22
2023-04-02T23:56:01.819Z,100336.91
2023-04-02T23:58:29.689Z,100336.81
